sensor_id;sensor_type;location;lat;lon;timestamp;P1;durP1;ratioP1;P2;durP2;ratioP2
48951;SDS011;34758;42.148;24.744;2024-01-15T00:01:42;34.25;;;20.42;;
48951;SDS011;34758;42.148;24.744;2024-01-15T00:04:16;35.83;;;21.83;;
48951;SDS011;34758;42.148;24.744;2024-01-15T00:06:46;37.03;;;21.02;;
48951;SDS011;34758;42.148;24.744;2024-01-15T00:09:13;37.05;;;22.40;;
48951;SDS011;34758;42.148;24.744;2024-01-15T00:11:43;38.08;;;22.48;;
48951;SDS011;34758;42.148;24.744;2024-01-15T00:14:12;43.15;;;22.55;;
48951;SDS011;34758;42.148;24.744;2024-01-15T00:16:45;41.88;;;21.30;;
48951;SDS011;34758;42.148;24.744;2024-01-15T00:19:17;39.17;;;22.13;;
48951;SDS011;34758;42.148;24.744;2024-01-15T00:21:45;42.05;;;21.77;;
48951;SDS011;34758;42.148;24.744;2024-01-15T00:24:18;44.90;;;24.08;;
48951;SDS011;34758;42.148;24.744;2024-01-15T00:26:47;44.35;;;24.55;;
48951;SDS011;34758;42.148;24.744;2024-01-15T00:29:15;45.72;;;24.90;;
48951;SDS011;34758;42.148;24.744;2024-01-15T00:31:46;49.63;;;25.23;;
48951;SDS011;34758;42.148;24.744;2024-01-15T00:34:13;50.33;;;25.83;;
48951;SDS011;34758;42.148;24.744;2024-01-15T00:36:45;46.50;;;26.10;;
48951;SDS011;34758;42.148;24.744;2024-01-15T00:39:17;43.72;;;24.65;;
48951;SDS011;34758;42.148;24.744;2024-01-15T00:41:45;44.65;;;25.23;;
48951;SDS011;34758;42.148;24.744;2024-01-15T00:44:14;44.15;;;23.92;;
48951;SDS011;34758;42.148;24.744;2024-01-15T00:46:45;75.22;;;28.10;;
48951;SDS011;34758;42.148;24.744;2024-01-15T00:51:45;58.05;;;24.83;;
48951;SDS011;34758;42.148;24.744;2024-01-15T00:54:13;49.17;;;24.02;;
48951;SDS011;34758;42.148;24.744;2024-01-15T00:56:41;53.13;;;24.98;;
48951;SDS011;34758;42.148;24.744;2024-01-15T00:59:09;44.50;;;24.50;;
48951;SDS011;34758;42.148;24.744;2024-01-15T01:01:40;50.72;;;24.02;;
48951;SDS011;34758;42.148;24.744;2024-01-15T01:04:23;54.58;;;24.73;;
48951;SDS011;34758;42.148;24.744;2024-01-15T01:06:54;55.20;;;24.98;;
48951;SDS011;34758;42.148;24.744;2024-01-15T01:09:21;47.05;;;23.40;;
48951;SDS011;34758;42.148;24.744;2024-01-15T01:11:50;49.42;;;24.65;;
48951;SDS011;34758;42.148;24.744;2024-01-15T01:14:21;46.97;;;24.38;;
48951;SDS011;34758;42.148;24.744;2024-01-15T01:16:54;44.17;;;23.88;;
48951;SDS011;34758;42.148;24.744;2024-01-15T01:19:24;44.45;;;23.40;;
48951;SDS011;34758;42.148;24.744;2024-01-15T01:21:53;46.90;;;24.92;;
48951;SDS011;34758;42.148;24.744;2024-01-15T01:24:24;48.15;;;23.35;;
48951;SDS011;34758;42.148;24.744;2024-01-15T01:26:53;45.03;;;22.75;;
48951;SDS011;34758;42.148;24.744;2024-01-15T01:29:22;54.17;;;23.05;;
48951;SDS011;34758;42.148;24.744;2024-01-15T01:31:52;40.70;;;21.92;;
48951;SDS011;34758;42.148;24.744;2024-01-15T01:34:27;34.47;;;20.55;;
48951;SDS011;34758;42.148;24.744;2024-01-15T01:37:07;30.60;;;17.50;;
48951;SDS011;34758;42.148;24.744;2024-01-15T01:39:41;46.13;;;23.23;;
48951;SDS011;34758;42.148;24.744;2024-01-15T01:42:11;42.25;;;23.13;;
48951;SDS011;34758;42.148;24.744;2024-01-15T01:44:43;42.00;;;23.65;;
48951;SDS011;34758;42.148;24.744;2024-01-15T01:49:44;39.17;;;21.38;;
48951;SDS011;34758;42.148;24.744;2024-01-15T01:52:13;43.60;;;23.17;;
48951;SDS011;34758;42.148;24.744;2024-01-15T01:54:44;39.90;;;21.83;;
48951;SDS011;34758;42.148;24.744;2024-01-15T01:57:13;39.97;;;22.50;;
48951;SDS011;34758;42.148;24.744;2024-01-15T01:59:42;39.00;;;21.25;;
48951;SDS011;34758;42.148;24.744;2024-01-15T02:02:10;36.97;;;20.85;;
48951;SDS011;34758;42.148;24.744;2024-01-15T02:04:38;37.75;;;20.55;;
48951;SDS011;34758;42.148;24.744;2024-01-15T02:07:11;36.20;;;19.05;;
48951;SDS011;34758;42.148;24.744;2024-01-15T02:09:38;41.05;;;19.95;;
48951;SDS011;34758;42.148;24.744;2024-01-15T02:12:06;38.08;;;21.05;;
48951;SDS011;34758;42.148;24.744;2024-01-15T02:14:34;40.08;;;22.50;;
48951;SDS011;34758;42.148;24.744;2024-01-15T02:17:04;38.47;;;21.58;;
48951;SDS011;34758;42.148;24.744;2024-01-15T02:19:32;34.88;;;20.60;;
48951;SDS011;34758;42.148;24.744;2024-01-15T02:21:59;33.53;;;20.30;;
48951;SDS011;34758;42.148;24.744;2024-01-15T02:24:28;39.90;;;22.80;;
48951;SDS011;34758;42.148;24.744;2024-01-15T02:26:57;43.10;;;22.15;;
48951;SDS011;34758;42.148;24.744;2024-01-15T02:29:26;37.83;;;21.25;;
48951;SDS011;34758;42.148;24.744;2024-01-15T02:31:53;42.03;;;22.48;;
48951;SDS011;34758;42.148;24.744;2024-01-15T02:34:22;42.78;;;22.35;;
48951;SDS011;34758;42.148;24.744;2024-01-15T02:36:49;40.30;;;21.48;;
48951;SDS011;34758;42.148;24.744;2024-01-15T02:39:16;39.65;;;22.65;;
48951;SDS011;34758;42.148;24.744;2024-01-15T02:41:47;36.53;;;21.08;;
48951;SDS011;34758;42.148;24.744;2024-01-15T02:44:18;39.63;;;21.55;;
48951;SDS011;34758;42.148;24.744;2024-01-15T02:46:46;43.03;;;22.67;;
48951;SDS011;34758;42.148;24.744;2024-01-15T02:49:15;38.15;;;21.40;;
48951;SDS011;34758;42.148;24.744;2024-01-15T02:51:42;41.70;;;22.48;;
48951;SDS011;34758;42.148;24.744;2024-01-15T02:54:09;41.58;;;23.48;;
48951;SDS011;34758;42.148;24.744;2024-01-15T02:56:37;37.70;;;22.40;;
48951;SDS011;34758;42.148;24.744;2024-01-15T02:59:05;39.42;;;21.85;;
48951;SDS011;34758;42.148;24.744;2024-01-15T03:01:33;41.38;;;21.50;;
48951;SDS011;34758;42.148;24.744;2024-01-15T03:04:02;40.28;;;22.10;;
48951;SDS011;34758;42.148;24.744;2024-01-15T03:06:30;39.47;;;22.50;;
48951;SDS011;34758;42.148;24.744;2024-01-15T03:08:59;43.78;;;23.25;;
48951;SDS011;34758;42.148;24.744;2024-01-15T03:11:27;38.88;;;22.98;;
48951;SDS011;34758;42.148;24.744;2024-01-15T03:13:54;41.53;;;23.38;;
48951;SDS011;34758;42.148;24.744;2024-01-15T03:16:23;42.50;;;23.45;;
48951;SDS011;34758;42.148;24.744;2024-01-15T03:18:52;42.90;;;22.05;;
48951;SDS011;34758;42.148;24.744;2024-01-15T03:21:19;44.15;;;23.65;;
48951;SDS011;34758;42.148;24.744;2024-01-15T03:23:47;45.45;;;23.80;;
48951;SDS011;34758;42.148;24.744;2024-01-15T03:26:14;40.35;;;22.80;;
48951;SDS011;34758;42.148;24.744;2024-01-15T03:28:41;41.35;;;22.88;;
48951;SDS011;34758;42.148;24.744;2024-01-15T03:31:10;40.10;;;23.30;;
48951;SDS011;34758;42.148;24.744;2024-01-15T03:33:40;42.50;;;22.88;;
48951;SDS011;34758;42.148;24.744;2024-01-15T03:36:08;41.83;;;22.25;;
48951;SDS011;34758;42.148;24.744;2024-01-15T03:38:38;34.47;;;19.23;;
48951;SDS011;34758;42.148;24.744;2024-01-15T03:41:08;41.08;;;22.67;;
48951;SDS011;34758;42.148;24.744;2024-01-15T03:43:36;38.33;;;21.30;;
48951;SDS011;34758;42.148;24.744;2024-01-15T03:46:07;41.03;;;21.90;;
48951;SDS011;34758;42.148;24.744;2024-01-15T03:48:34;41.55;;;23.02;;
48951;SDS011;34758;42.148;24.744;2024-01-15T03:51:04;38.47;;;20.50;;
48951;SDS011;34758;42.148;24.744;2024-01-15T03:53:31;43.90;;;22.33;;
48951;SDS011;34758;42.148;24.744;2024-01-15T03:55:58;38.97;;;22.33;;
48951;SDS011;34758;42.148;24.744;2024-01-15T03:58:25;37.13;;;20.60;;
48951;SDS011;34758;42.148;24.744;2024-01-15T04:00:53;43.10;;;22.63;;
48951;SDS011;34758;42.148;24.744;2024-01-15T04:03:24;39.90;;;21.80;;
48951;SDS011;34758;42.148;24.744;2024-01-15T04:05:51;39.95;;;20.90;;
48951;SDS011;34758;42.148;24.744;2024-01-15T04:08:20;38.55;;;20.92;;
48951;SDS011;34758;42.148;24.744;2024-01-15T04:10:47;41.95;;;21.42;;
48951;SDS011;34758;42.148;24.744;2024-01-15T04:13:14;43.72;;;22.23;;
48951;SDS011;34758;42.148;24.744;2024-01-15T04:15:42;39.40;;;22.02;;
48951;SDS011;34758;42.148;24.744;2024-01-15T04:18:10;39.60;;;22.33;;
48951;SDS011;34758;42.148;24.744;2024-01-15T04:20:40;33.50;;;20.25;;
48951;SDS011;34758;42.148;24.744;2024-01-15T04:23:08;40.63;;;20.45;;
48951;SDS011;34758;42.148;24.744;2024-01-15T04:25:42;40.00;;;21.70;;
48951;SDS011;34758;42.148;24.744;2024-01-15T04:28:11;39.80;;;21.60;;
48951;SDS011;34758;42.148;24.744;2024-01-15T04:30:38;35.80;;;20.80;;
48951;SDS011;34758;42.148;24.744;2024-01-15T04:33:05;46.50;;;23.50;;
48951;SDS011;34758;42.148;24.744;2024-01-15T04:35:33;44.13;;;22.27;;
48951;SDS011;34758;42.148;24.744;2024-01-15T04:38:00;38.42;;;22.42;;
48951;SDS011;34758;42.148;24.744;2024-01-15T04:40:29;42.72;;;23.65;;
48951;SDS011;34758;42.148;24.744;2024-01-15T04:42:58;43.20;;;22.23;;
48951;SDS011;34758;42.148;24.744;2024-01-15T04:45:26;48.42;;;23.35;;
48951;SDS011;34758;42.148;24.744;2024-01-15T04:47:57;38.13;;;21.42;;
48951;SDS011;34758;42.148;24.744;2024-01-15T04:50:28;42.67;;;22.55;;
48951;SDS011;34758;42.148;24.744;2024-01-15T04:52:55;45.22;;;23.02;;
48951;SDS011;34758;42.148;24.744;2024-01-15T04:55:21;41.05;;;23.33;;
48951;SDS011;34758;42.148;24.744;2024-01-15T04:57:49;44.17;;;23.77;;
48951;SDS011;34758;42.148;24.744;2024-01-15T05:00:18;38.65;;;21.48;;
48951;SDS011;34758;42.148;24.744;2024-01-15T05:02:45;36.35;;;20.92;;
48951;SDS011;34758;42.148;24.744;2024-01-15T05:05:12;40.97;;;22.30;;
48951;SDS011;34758;42.148;24.744;2024-01-15T05:07:40;35.92;;;21.75;;
48951;SDS011;34758;42.148;24.744;2024-01-15T05:10:07;40.85;;;21.52;;
48951;SDS011;34758;42.148;24.744;2024-01-15T05:12:36;38.22;;;21.17;;
48951;SDS011;34758;42.148;24.744;2024-01-15T05:15:04;40.60;;;21.98;;
48951;SDS011;34758;42.148;24.744;2024-01-15T05:17:36;40.35;;;22.27;;
48951;SDS011;34758;42.148;24.744;2024-01-15T05:20:04;37.22;;;21.73;;
48951;SDS011;34758;42.148;24.744;2024-01-15T05:22:33;41.53;;;21.90;;
48951;SDS011;34758;42.148;24.744;2024-01-15T05:25:01;37.25;;;21.40;;
48951;SDS011;34758;42.148;24.744;2024-01-15T05:27:29;46.90;;;22.80;;
48951;SDS011;34758;42.148;24.744;2024-01-15T05:29:56;39.53;;;22.05;;
48951;SDS011;34758;42.148;24.744;2024-01-15T05:32:23;38.70;;;20.83;;
48951;SDS011;34758;42.148;24.744;2024-01-15T05:34:53;39.22;;;22.45;;
48951;SDS011;34758;42.148;24.744;2024-01-15T05:37:20;41.03;;;20.83;;
48951;SDS011;34758;42.148;24.744;2024-01-15T05:39:47;40.67;;;22.48;;
48951;SDS011;34758;42.148;24.744;2024-01-15T05:42:15;39.38;;;22.20;;
48951;SDS011;34758;42.148;24.744;2024-01-15T05:44:42;41.53;;;22.02;;
48951;SDS011;34758;42.148;24.744;2024-01-15T05:47:09;44.42;;;22.67;;
48951;SDS011;34758;42.148;24.744;2024-01-15T05:49:41;39.33;;;22.30;;
48951;SDS011;34758;42.148;24.744;2024-01-15T05:52:12;45.83;;;27.88;;
48951;SDS011;34758;42.148;24.744;2024-01-15T05:54:40;45.40;;;25.70;;
48951;SDS011;34758;42.148;24.744;2024-01-15T05:57:07;43.45;;;23.23;;
48951;SDS011;34758;42.148;24.744;2024-01-15T05:59:35;40.13;;;22.92;;
48951;SDS011;34758;42.148;24.744;2024-01-15T06:02:03;52.65;;;28.33;;
48951;SDS011;34758;42.148;24.744;2024-01-15T06:04:30;48.13;;;27.35;;
48951;SDS011;34758;42.148;24.744;2024-01-15T06:06:59;51.67;;;28.52;;
48951;SDS011;34758;42.148;24.744;2024-01-15T06:09:28;48.88;;;29.50;;
48951;SDS011;34758;42.148;24.744;2024-01-15T06:11:55;51.25;;;32.17;;
48951;SDS011;34758;42.148;24.744;2024-01-15T06:14:23;52.53;;;31.42;;
48951;SDS011;34758;42.148;24.744;2024-01-15T06:16:49;56.45;;;31.10;;
48951;SDS011;34758;42.148;24.744;2024-01-15T06:19:16;55.53;;;32.38;;
48951;SDS011;34758;42.148;24.744;2024-01-15T06:21:43;52.75;;;31.38;;
48951;SDS011;34758;42.148;24.744;2024-01-15T06:24:10;48.83;;;29.75;;
48951;SDS011;34758;42.148;24.744;2024-01-15T06:26:41;45.88;;;27.05;;
48951;SDS011;34758;42.148;24.744;2024-01-15T06:29:08;41.88;;;25.60;;
48951;SDS011;34758;42.148;24.744;2024-01-15T06:31:37;41.95;;;24.48;;
48951;SDS011;34758;42.148;24.744;2024-01-15T06:34:06;41.63;;;23.77;;
48951;SDS011;34758;42.148;24.744;2024-01-15T06:36:33;41.33;;;21.17;;
48951;SDS011;34758;42.148;24.744;2024-01-15T06:39:00;36.83;;;20.77;;
48951;SDS011;34758;42.148;24.744;2024-01-15T06:41:29;39.97;;;21.00;;
48951;SDS011;34758;42.148;24.744;2024-01-15T06:44:01;38.65;;;21.90;;
48951;SDS011;34758;42.148;24.744;2024-01-15T06:46:28;36.38;;;20.98;;
48951;SDS011;34758;42.148;24.744;2024-01-15T06:48:56;37.33;;;20.30;;
48951;SDS011;34758;42.148;24.744;2024-01-15T06:51:24;36.85;;;20.38;;
48951;SDS011;34758;42.148;24.744;2024-01-15T06:53:52;43.08;;;21.10;;
48951;SDS011;34758;42.148;24.744;2024-01-15T06:56:20;36.70;;;20.02;;
48951;SDS011;34758;42.148;24.744;2024-01-15T06:58:47;42.42;;;23.08;;
48951;SDS011;34758;42.148;24.744;2024-01-15T07:01:15;45.35;;;22.63;;
48951;SDS011;34758;42.148;24.744;2024-01-15T07:03:42;39.10;;;22.67;;
48951;SDS011;34758;42.148;24.744;2024-01-15T07:06:13;44.20;;;24.45;;
48951;SDS011;34758;42.148;24.744;2024-01-15T07:08:41;37.60;;;21.42;;
48951;SDS011;34758;42.148;24.744;2024-01-15T07:11:08;39.25;;;23.33;;
48951;SDS011;34758;42.148;24.744;2024-01-15T07:13:37;36.08;;;21.35;;
48951;SDS011;34758;42.148;24.744;2024-01-15T07:16:04;38.20;;;20.83;;
48951;SDS011;34758;42.148;24.744;2024-01-15T07:18:36;39.92;;;22.17;;
48951;SDS011;34758;42.148;24.744;2024-01-15T07:21:05;40.95;;;22.60;;
48951;SDS011;34758;42.148;24.744;2024-01-15T07:23:33;35.47;;;20.65;;
48951;SDS011;34758;42.148;24.744;2024-01-15T07:26:04;37.97;;;20.48;;
48951;SDS011;34758;42.148;24.744;2024-01-15T07:28:32;41.45;;;21.92;;
48951;SDS011;34758;42.148;24.744;2024-01-15T07:31:00;44.83;;;23.23;;
48951;SDS011;34758;42.148;24.744;2024-01-15T07:33:34;41.28;;;21.85;;
48951;SDS011;34758;42.148;24.744;2024-01-15T07:36:01;39.35;;;21.35;;
48951;SDS011;34758;42.148;24.744;2024-01-15T07:38:29;35.65;;;21.70;;
48951;SDS011;34758;42.148;24.744;2024-01-15T07:40:57;42.38;;;22.20;;
48951;SDS011;34758;42.148;24.744;2024-01-15T07:43:24;42.40;;;24.77;;
48951;SDS011;34758;42.148;24.744;2024-01-15T07:45:52;44.60;;;24.92;;
48951;SDS011;34758;42.148;24.744;2024-01-15T07:48:19;46.67;;;26.15;;
48951;SDS011;34758;42.148;24.744;2024-01-15T07:50:48;48.72;;;28.30;;
48951;SDS011;34758;42.148;24.744;2024-01-15T07:53:15;51.88;;;29.38;;
48951;SDS011;34758;42.148;24.744;2024-01-15T07:55:42;53.08;;;30.55;;
48951;SDS011;34758;42.148;24.744;2024-01-15T07:58:13;58.40;;;30.88;;
48951;SDS011;34758;42.148;24.744;2024-01-15T08:00:43;53.63;;;30.10;;
48951;SDS011;34758;42.148;24.744;2024-01-15T08:03:10;52.88;;;28.90;;
48951;SDS011;34758;42.148;24.744;2024-01-15T08:05:39;55.08;;;31.08;;
48951;SDS011;34758;42.148;24.744;2024-01-15T08:08:11;56.65;;;29.90;;
48951;SDS011;34758;42.148;24.744;2024-01-15T08:10:38;57.17;;;30.98;;
48951;SDS011;34758;42.148;24.744;2024-01-15T08:13:06;46.13;;;28.35;;
48951;SDS011;34758;42.148;24.744;2024-01-15T08:15:35;45.63;;;25.85;;
48951;SDS011;34758;42.148;24.744;2024-01-15T08:18:02;42.30;;;24.50;;
48951;SDS011;34758;42.148;24.744;2024-01-15T08:20:31;47.33;;;25.38;;
48951;SDS011;34758;42.148;24.744;2024-01-15T08:22:58;48.45;;;24.58;;
48951;SDS011;34758;42.148;24.744;2024-01-15T08:25:29;42.78;;;23.65;;
48951;SDS011;34758;42.148;24.744;2024-01-15T08:27:59;50.03;;;24.67;;
48951;SDS011;34758;42.148;24.744;2024-01-15T08:30:29;48.60;;;28.27;;
48951;SDS011;34758;42.148;24.744;2024-01-15T08:32:56;45.42;;;26.50;;
48951;SDS011;34758;42.148;24.744;2024-01-15T08:35:26;45.38;;;26.52;;
48951;SDS011;34758;42.148;24.744;2024-01-15T08:37:53;40.88;;;25.40;;
48951;SDS011;34758;42.148;24.744;2024-01-15T08:40:21;40.35;;;24.35;;
48951;SDS011;34758;42.148;24.744;2024-01-15T08:42:54;53.05;;;26.33;;
48951;SDS011;34758;42.148;24.744;2024-01-15T08:45:24;39.95;;;23.67;;
48951;SDS011;34758;42.148;24.744;2024-01-15T08:47:55;33.50;;;20.45;;
48951;SDS011;34758;42.148;24.744;2024-01-15T08:50:22;36.33;;;21.63;;
48951;SDS011;34758;42.148;24.744;2024-01-15T08:52:49;37.95;;;22.35;;
48951;SDS011;34758;42.148;24.744;2024-01-15T08:55:17;35.40;;;20.25;;
48951;SDS011;34758;42.148;24.744;2024-01-15T08:57:44;35.53;;;20.00;;
48951;SDS011;34758;42.148;24.744;2024-01-15T09:00:15;38.63;;;20.50;;
48951;SDS011;34758;42.148;24.744;2024-01-15T09:02:46;36.65;;;22.13;;
48951;SDS011;34758;42.148;24.744;2024-01-15T09:05:14;37.35;;;22.50;;
48951;SDS011;34758;42.148;24.744;2024-01-15T09:07:42;37.55;;;21.73;;
48951;SDS011;34758;42.148;24.744;2024-01-15T09:10:12;37.97;;;22.25;;
48951;SDS011;34758;42.148;24.744;2024-01-15T09:12:39;41.58;;;22.40;;
48951;SDS011;34758;42.148;24.744;2024-01-15T09:15:06;44.28;;;23.05;;
48951;SDS011;34758;42.148;24.744;2024-01-15T09:17:36;36.58;;;22.58;;
48951;SDS011;34758;42.148;24.744;2024-01-15T09:20:05;39.80;;;21.90;;
48951;SDS011;34758;42.148;24.744;2024-01-15T09:22:33;36.15;;;21.83;;
48951;SDS011;34758;42.148;24.744;2024-01-15T09:25:00;40.65;;;22.58;;
48951;SDS011;34758;42.148;24.744;2024-01-15T09:27:27;37.08;;;21.90;;
48951;SDS011;34758;42.148;24.744;2024-01-15T09:29:54;37.50;;;22.30;;
48951;SDS011;34758;42.148;24.744;2024-01-15T09:32:21;40.25;;;22.92;;
48951;SDS011;34758;42.148;24.744;2024-01-15T09:34:51;41.30;;;22.08;;
48951;SDS011;34758;42.148;24.744;2024-01-15T09:37:19;38.85;;;23.17;;
48951;SDS011;34758;42.148;24.744;2024-01-15T09:39:46;37.80;;;23.00;;
48951;SDS011;34758;42.148;24.744;2024-01-15T09:42:15;39.60;;;22.85;;
48951;SDS011;34758;42.148;24.744;2024-01-15T09:44:43;37.28;;;23.02;;
48951;SDS011;34758;42.148;24.744;2024-01-15T09:47:13;40.03;;;23.27;;
48951;SDS011;34758;42.148;24.744;2024-01-15T09:49:41;46.38;;;24.92;;
48951;SDS011;34758;42.148;24.744;2024-01-15T09:52:16;43.85;;;25.92;;
48951;SDS011;34758;42.148;24.744;2024-01-15T09:54:48;40.17;;;25.90;;
48951;SDS011;34758;42.148;24.744;2024-01-15T09:57:16;41.38;;;24.65;;
48951;SDS011;34758;42.148;24.744;2024-01-15T09:59:45;39.03;;;25.60;;
48951;SDS011;34758;42.148;24.744;2024-01-15T10:02:13;38.88;;;24.30;;
48951;SDS011;34758;42.148;24.744;2024-01-15T10:04:45;40.50;;;23.77;;
48951;SDS011;34758;42.148;24.744;2024-01-15T10:07:14;38.22;;;24.80;;
48951;SDS011;34758;42.148;24.744;2024-01-15T10:09:45;39.77;;;25.43;;
48951;SDS011;34758;42.148;24.744;2024-01-15T10:12:12;42.85;;;24.65;;
48951;SDS011;34758;42.148;24.744;2024-01-15T10:14:40;44.92;;;25.23;;
48951;SDS011;34758;42.148;24.744;2024-01-15T10:17:12;38.20;;;24.30;;
48951;SDS011;34758;42.148;24.744;2024-01-15T10:19:40;41.72;;;25.17;;
48951;SDS011;34758;42.148;24.744;2024-01-15T10:22:08;43.88;;;25.05;;
48951;SDS011;34758;42.148;24.744;2024-01-15T10:24:37;39.75;;;25.45;;
48951;SDS011;34758;42.148;24.744;2024-01-15T10:27:04;41.78;;;25.23;;
48951;SDS011;34758;42.148;24.744;2024-01-15T10:29:32;41.60;;;25.98;;
48951;SDS011;34758;42.148;24.744;2024-01-15T10:32:00;39.75;;;26.67;;
48951;SDS011;34758;42.148;24.744;2024-01-15T10:34:30;39.78;;;25.38;;
48951;SDS011;34758;42.148;24.744;2024-01-15T10:36:57;42.38;;;26.30;;
48951;SDS011;34758;42.148;24.744;2024-01-15T10:39:26;40.25;;;27.15;;
48951;SDS011;34758;42.148;24.744;2024-01-15T10:41:55;39.00;;;26.40;;
48951;SDS011;34758;42.148;24.744;2024-01-15T10:44:23;36.38;;;24.67;;
48951;SDS011;34758;42.148;24.744;2024-01-15T10:46:50;43.60;;;27.25;;
48951;SDS011;34758;42.148;24.744;2024-01-15T10:49:16;40.90;;;24.70;;
48951;SDS011;34758;42.148;24.744;2024-01-15T10:51:45;40.50;;;25.92;;
48951;SDS011;34758;42.148;24.744;2024-01-15T10:54:15;48.45;;;28.70;;
48951;SDS011;34758;42.148;24.744;2024-01-15T10:56:43;48.90;;;29.67;;
48951;SDS011;34758;42.148;24.744;2024-01-15T10:59:14;45.92;;;29.75;;
48951;SDS011;34758;42.148;24.744;2024-01-15T11:01:45;41.35;;;28.63;;
48951;SDS011;34758;42.148;24.744;2024-01-15T11:04:12;40.72;;;27.02;;
48951;SDS011;34758;42.148;24.744;2024-01-15T11:06:41;44.05;;;28.63;;
48951;SDS011;34758;42.148;24.744;2024-01-15T11:09:09;48.08;;;29.65;;
48951;SDS011;34758;42.148;24.744;2024-01-15T11:11:40;48.25;;;28.83;;
48951;SDS011;34758;42.148;24.744;2024-01-15T11:14:07;43.10;;;29.23;;
48951;SDS011;34758;42.148;24.744;2024-01-15T11:19:34;33.03;;;23.20;;
48951;SDS011;34758;42.148;24.744;2024-01-15T11:22:06;46.20;;;28.45;;
48951;SDS011;34758;42.148;24.744;2024-01-15T11:24:37;40.70;;;27.70;;
48951;SDS011;34758;42.148;24.744;2024-01-15T11:27:06;39.90;;;25.83;;
48951;SDS011;34758;42.148;24.744;2024-01-15T11:29:33;42.90;;;25.90;;
48951;SDS011;34758;42.148;24.744;2024-01-15T11:32:03;41.97;;;24.45;;
48951;SDS011;34758;42.148;24.744;2024-01-15T11:34:53;36.78;;;24.58;;
48951;SDS011;34758;42.148;24.744;2024-01-15T11:37:23;36.75;;;23.88;;
48951;SDS011;34758;42.148;24.744;2024-01-15T11:39:52;42.25;;;26.30;;
48951;SDS011;34758;42.148;24.744;2024-01-15T11:42:22;44.25;;;27.33;;
48951;SDS011;34758;42.148;24.744;2024-01-15T11:44:52;39.47;;;24.25;;
48951;SDS011;34758;42.148;24.744;2024-01-15T11:50:30;40.45;;;27.05;;
48951;SDS011;34758;42.148;24.744;2024-01-15T11:53:00;36.10;;;24.65;;
48951;SDS011;34758;42.148;24.744;2024-01-15T11:55:29;43.25;;;26.15;;
48951;SDS011;34758;42.148;24.744;2024-01-15T11:58:00;44.97;;;26.10;;
48951;SDS011;34758;42.148;24.744;2024-01-15T12:00:29;37.53;;;24.80;;
48951;SDS011;34758;42.148;24.744;2024-01-15T12:02:58;37.92;;;24.88;;
48951;SDS011;34758;42.148;24.744;2024-01-15T12:05:31;40.70;;;25.67;;
48951;SDS011;34758;42.148;24.744;2024-01-15T12:08:00;42.73;;;26.13;;
48951;SDS011;34758;42.148;24.744;2024-01-15T12:10:30;44.63;;;29.05;;
48951;SDS011;34758;42.148;24.744;2024-01-15T12:12:59;48.38;;;29.40;;
48951;SDS011;34758;42.148;24.744;2024-01-15T12:15:27;53.10;;;30.15;;
48951;SDS011;34758;42.148;24.744;2024-01-15T12:17:55;47.38;;;31.02;;
48951;SDS011;34758;42.148;24.744;2024-01-15T12:20:25;52.05;;;32.53;;
48951;SDS011;34758;42.148;24.744;2024-01-15T12:22:55;51.47;;;32.13;;
48951;SDS011;34758;42.148;24.744;2024-01-15T12:25:23;50.38;;;30.73;;
48951;SDS011;34758;42.148;24.744;2024-01-15T12:27:51;50.83;;;31.67;;
48951;SDS011;34758;42.148;24.744;2024-01-15T12:30:22;56.88;;;33.53;;
48951;SDS011;34758;42.148;24.744;2024-01-15T12:32:50;53.67;;;33.72;;
48951;SDS011;34758;42.148;24.744;2024-01-15T12:35:17;56.72;;;32.40;;
48951;SDS011;34758;42.148;24.744;2024-01-15T12:37:47;54.00;;;34.40;;
48951;SDS011;34758;42.148;24.744;2024-01-15T12:40:19;55.28;;;34.25;;
48951;SDS011;34758;42.148;24.744;2024-01-15T12:42:49;51.83;;;34.83;;
48951;SDS011;34758;42.148;24.744;2024-01-15T12:45:18;53.78;;;35.17;;
48951;SDS011;34758;42.148;24.744;2024-01-15T12:47:45;56.67;;;36.08;;
48951;SDS011;34758;42.148;24.744;2024-01-15T12:50:17;66.70;;;37.35;;
48951;SDS011;34758;42.148;24.744;2024-01-15T12:52:44;59.28;;;38.15;;
48951;SDS011;34758;42.148;24.744;2024-01-15T12:55:12;62.88;;;39.95;;
48951;SDS011;34758;42.148;24.744;2024-01-15T12:57:42;55.40;;;37.28;;
48951;SDS011;34758;42.148;24.744;2024-01-15T13:00:12;59.40;;;37.28;;
48951;SDS011;34758;42.148;24.744;2024-01-15T13:02:43;66.47;;;40.70;;
48951;SDS011;34758;42.148;24.744;2024-01-15T13:05:10;62.72;;;37.90;;
48951;SDS011;34758;42.148;24.744;2024-01-15T13:07:38;54.58;;;35.83;;
48951;SDS011;34758;42.148;24.744;2024-01-15T13:10:07;63.25;;;36.45;;
48951;SDS011;34758;42.148;24.744;2024-01-15T13:12:36;60.85;;;36.17;;
48951;SDS011;34758;42.148;24.744;2024-01-15T13:15:05;57.65;;;37.85;;
48951;SDS011;34758;42.148;24.744;2024-01-15T13:17:38;58.90;;;38.30;;
48951;SDS011;34758;42.148;24.744;2024-01-15T13:20:06;61.85;;;38.20;;
48951;SDS011;34758;42.148;24.744;2024-01-15T13:22:37;58.83;;;35.08;;
48951;SDS011;34758;42.148;24.744;2024-01-15T13:25:05;60.15;;;35.35;;
48951;SDS011;34758;42.148;24.744;2024-01-15T13:27:37;61.28;;;37.00;;
48951;SDS011;34758;42.148;24.744;2024-01-15T13:30:07;59.80;;;36.90;;
48951;SDS011;34758;42.148;24.744;2024-01-15T13:32:35;58.83;;;37.28;;
48951;SDS011;34758;42.148;24.744;2024-01-15T13:35:04;59.75;;;40.08;;
48951;SDS011;34758;42.148;24.744;2024-01-15T13:37:35;64.90;;;38.13;;
48951;SDS011;34758;42.148;24.744;2024-01-15T13:40:04;58.45;;;36.55;;
48951;SDS011;34758;42.148;24.744;2024-01-15T13:42:33;58.15;;;37.92;;
48951;SDS011;34758;42.148;24.744;2024-01-15T13:45:04;58.33;;;37.90;;
48951;SDS011;34758;42.148;24.744;2024-01-15T13:47:35;58.00;;;36.15;;
48951;SDS011;34758;42.148;24.744;2024-01-15T13:50:04;56.83;;;36.47;;
48951;SDS011;34758;42.148;24.744;2024-01-15T13:52:33;70.85;;;42.08;;
48951;SDS011;34758;42.148;24.744;2024-01-15T13:55:01;62.65;;;37.20;;
48951;SDS011;34758;42.148;24.744;2024-01-15T13:57:29;59.22;;;36.45;;
48951;SDS011;34758;42.148;24.744;2024-01-15T13:59:56;62.97;;;35.42;;
48951;SDS011;34758;42.148;24.744;2024-01-15T14:02:24;59.28;;;35.75;;
48951;SDS011;34758;42.148;24.744;2024-01-15T14:04:54;61.53;;;36.72;;
48951;SDS011;34758;42.148;24.744;2024-01-15T14:07:22;54.03;;;33.42;;
48951;SDS011;34758;42.148;24.744;2024-01-15T14:09:52;60.80;;;36.47;;
48951;SDS011;34758;42.148;24.744;2024-01-15T14:12:24;61.90;;;37.95;;
48951;SDS011;34758;42.148;24.744;2024-01-15T14:14:53;78.82;;;41.53;;
48951;SDS011;34758;42.148;24.744;2024-01-15T14:17:22;69.40;;;38.17;;
48951;SDS011;34758;42.148;24.744;2024-01-15T14:19:53;60.60;;;37.30;;
48951;SDS011;34758;42.148;24.744;2024-01-15T14:22:20;51.53;;;32.90;;
48951;SDS011;34758;42.148;24.744;2024-01-15T14:24:47;53.47;;;33.63;;
48951;SDS011;34758;42.148;24.744;2024-01-15T14:27:14;58.67;;;35.38;;
48951;SDS011;34758;42.148;24.744;2024-01-15T14:29:42;58.45;;;34.10;;